GPS DATA

Fri Jun 15 11:20:59 2018 APRS[DL7GCW-7]Decoded GPS Auto: LAT(N4741.720) LONG(E00859.58) SPEED(0.0) RPT:262807
Fri Jun 15 11:23:29 2018 APRS[DL7GCW-7]Decoded GPS Auto: LAT(N4741.720) LONG(E00859.58) SPEED(0.0) RPT:262807
Fri Jun 15 11:25:59 2018 APRS[DL7GCW-7]Decoded GPS Auto: LAT(N4741.720) LONG(E00859.58) SPEED(0.0) RPT:262807
Fri Jun 15 11:28:42 2018 APRS[DL7GCW-7]Decoded GPS Auto: LAT(N4741.720) LONG(E00859.58) SPEED(0.0) RPT:262807
Fri Jun 15 11:30:59 2018 APRS[DL7GCW-7]Decoded GPS Auto: LAT(N4741.720) LONG(E00859.58) SPEED(0.0) RPT:262807
Fri Jun 15 11:43:29 2018 APRS[DL7GCW-7]Decoded GPS Auto: LAT(N4741.720) LONG(E00859.58) SPEED(0.0) RPT:262807
Fri Jun 15 11:45:59 2018 APRS[DL7GCW-7]Decoded GPS Auto: LAT(N4741.720) LONG(E00859.58) SPEED(0.0) RPT:262807
Fri Jun 15 11:48:29 2018 APRS[DL7GCW-7]Decoded GPS Auto: LAT(N4741.720) LONG(E00859.58) SPEED(0.0) RPT:262807
Fri Jun 15 11:50:58 2018 APRS[DL7GCW-7]Decoded GPS Auto: LAT(N4741.720) LONG(E00859.58) SPEED(0.0) RPT:262807
Fri Jun 15 11:53:29 2018 APRS[DL7GCW-7]Decoded GPS Auto: LAT(N4741.720) LONG(E00859.58) SPEED(0.0) RPT:262807
Fri Jun 15 11:55:59 2018 APRS[DL7GCW-7]Decoded GPS Auto: LAT(N4741.720) LONG(E00859.58) SPEED(0.0) RPT:262807
Fri Jun 15 11:58:28 2018 APRS[DL7GCW-7]Decoded GPS Auto: LAT(N4741.720) LONG(E00859.57) SPEED(0.0) RPT:262807
Fri Jun 15 12:00:02 2018 APRS[DL7GCW-7]Decoded GPS Auto: LAT(N4741.722) LONG(E00859.56) SPEED(0.2) RPT:262807
Fri Jun 15 12:00:14 2018 APRS[DL7GCW-7]Decoded GPS Auto: LAT(N4741.722) LONG(E00859.56) SPEED(0.0) RPT:262807
Fri Jun 15 12:01:04 2018 APRS[DL7GCW-7]Decoded GPS Auto: LAT(N4741.722) LONG(E00859.56) SPEED(0.0) RPT:262807
Fri Jun 15 12:01:15 2018 APRS[DL7GCW-7]Decoded GPS Auto: LAT(N4741.722) LONG(E00859.56) SPEED(0.0) RPT:262807
Fri Jun 15 12:02:37 2018 APRS[DL7GCW-7]Decoded GPS Auto: LAT(N4741.722) LONG(E00859.57) SPEED(0.1) RPT:262807
Fri Jun 15 12:02:48 2018 APRS[DL7GCW-7]Decoded GPS Auto: LAT(N4741.722) LONG(E00859.57) SPEED(0.0) RPT:262807
Mon Jun 18 11:00:19 2018 APRS[DK9TO-7]Decoded GPS Auto: LAT(N4741.123) LONG(E00928.61) SPEED(0.0) RPT:262807
Mon Jun 18 11:00:22 2018 APRS[DK9TO-7]Decoded GPS Auto: LAT(N4741.123) LONG(E00928.61) SPEED(0.0) RPT:262807
Mon Jun 18 11:00:25 2018 APRS[DK9TO-7]Decoded GPS Auto: LAT(N4741.123) LONG(E00928.61) SPEED(0.0) RPT:262807
Fri Jun 15 11:00:59 2018 APRS[DL7GCW-7]Decoded GPS Auto: LAT(N4741.726) LONG(E00859.58) SPEED(0.0) RPT:262807
Fri Jun 15 11:03:29 2018 APRS[DL7GCW-7]Decoded GPS Auto: LAT(N4741.726) LONG(E00859.58) SPEED(0.0) RPT:262807
Fri Jun 15 11:05:58 2018 APRS[DL7GCW-7]Decoded GPS Auto: LAT(N4741.725) LONG(E00859.57) SPEED(0.0) RPT:262807
Fri Jun 15 11:08:29 2018 APRS[DL7GCW-7]Decoded GPS Auto: LAT(N4741.725) LONG(E00859.57) SPEED(0.0) RPT:262807
Fri Jun 15 11:10:58 2018 APRS[DL7GCW-7]Decoded GPS Auto: LAT(N4741.721) LONG(E00859.57) SPEED(0.0) RPT:262807
Fri Jun 15 11:13:28 2018 APRS[DL7GCW-7]Decoded GPS Auto: LAT(N4741.721) LONG(E00859.57) SPEED(0.0) RPT:262807
Fri Jun 15 11:15:58 2018 APRS[DL7GCW-7]Decoded GPS Auto: LAT(N4741.721) LONG(E00859.57) SPEED(0.0) RPT:262807
Fri Jun 15 11:18:29 2018 APRS[DL7GCW-7]Decoded GPS Auto: LAT(N4741.720) LONG(E00859.58) SPEED(0.0) RPT:262807